sensor_id;sensor_type;location;lat;lon;timestamp;temperature;humidity
19544;DHT22;9917;51.256;7.152;2023-04-29T00:08:49;12.80;99.90
19544;DHT22;9917;51.256;7.152;2023-04-29T00:13:42;13.00;99.90
19544;DHT22;9917;51.256;7.152;2023-04-29T00:30:45;12.90;99.90
19544;DHT22;9917;51.256;7.152;2023-04-29T00:33:11;12.80;99.90
19544;DHT22;9917;51.256;7.152;2023-04-29T00:45:21;12.90;99.90
19544;DHT22;9917;51.256;7.152;2023-04-29T00:47:49;13.00;99.90
19544;DHT22;9917;51.256;7.152;2023-04-29T00:52:42;12.90;99.90
19544;DHT22;9917;51.256;7.152;2023-04-29T00:55:10;12.60;99.90
19544;DHT22;9917;51.256;7.152;2023-04-29T00:57:36;13.00;99.90
19544;DHT22;9917;51.256;7.152;2023-04-29T01:00:02;12.80;99.90
19544;DHT22;9917;51.256;7.152;2023-04-29T01:02:28;12.50;99.90
19544;DHT22;9917;51.256;7.152;2023-04-29T01:04:55;12.80;99.90
19544;DHT22;9917;51.256;7.152;2023-04-29T01:07:29;12.60;99.90
19544;DHT22;9917;51.256;7.152;2023-04-29T01:10:03;13.30;99.90
19544;DHT22;9917;51.256;7.152;2023-04-29T01:12:33;12.60;99.90
19544;DHT22;9917;51.256;7.152;2023-04-29T01:15:04;12.50;99.90
19544;DHT22;9917;51.256;7.152;2023-04-29T01:17:39;12.50;99.90
19544;DHT22;9917;51.256;7.152;2023-04-29T01:20:08;12.40;99.90
19544;DHT22;9917;51.256;7.152;2023-04-29T01:22:34;12.80;99.90
19544;DHT22;9917;51.256;7.152;2023-04-29T01:25:01;12.70;99.90
19544;DHT22;9917;51.256;7.152;2023-04-29T01:27:30;12.40;99.90
19544;DHT22;9917;51.256;7.152;2023-04-29T01:30:01;12.30;99.90
19544;DHT22;9917;51.256;7.152;2023-04-29T01:32:36;12.10;99.90
19544;DHT22;9917;51.256;7.152;2023-04-29T01:35:10;12.30;99.90
19544;DHT22;9917;51.256;7.152;2023-04-29T01:37:48;12.00;99.90
19544;DHT22;9917;51.256;7.152;2023-04-29T01:40:19;11.90;99.90
19544;DHT22;9917;51.256;7.152;2023-04-29T01:42:58;12.40;99.90
19544;DHT22;9917;51.256;7.152;2023-04-29T01:45:25;12.40;99.90
19544;DHT22;9917;51.256;7.152;2023-04-29T01:48:11;12.50;99.90
19544;DHT22;9917;51.256;7.152;2023-04-29T01:50:37;12.20;99.90
19544;DHT22;9917;51.256;7.152;2023-04-29T01:55:30;12.30;99.90
19544;DHT22;9917;51.256;7.152;2023-04-29T01:57:56;12.50;99.90
19544;DHT22;9917;51.256;7.152;2023-04-29T02:00:22;12.10;99.90
19544;DHT22;9917;51.256;7.152;2023-04-29T02:02:48;12.50;99.90
19544;DHT22;9917;51.256;7.152;2023-04-29T02:10:06;12.20;99.90
19544;DHT22;9917;51.256;7.152;2023-04-29T02:12:33;12.10;99.90
19544;DHT22;9917;51.256;7.152;2023-04-29T02:15:25;12.10;99.90
19544;DHT22;9917;51.256;7.152;2023-04-29T02:17:51;12.10;99.90
19544;DHT22;9917;51.256;7.152;2023-04-29T02:20:17;12.20;99.90
19544;DHT22;9917;51.256;7.152;2023-04-29T02:25:09;12.20;99.90
19544;DHT22;9917;51.256;7.152;2023-04-29T02:27:36;14.00;99.90
19544;DHT22;9917;51.256;7.152;2023-04-29T02:30:02;11.90;99.90
19544;DHT22;9917;51.256;7.152;2023-04-29T02:37:20;11.90;99.90
19544;DHT22;9917;51.256;7.152;2023-04-29T02:42:12;11.90;99.90
19544;DHT22;9917;51.256;7.152;2023-04-29T02:44:39;11.90;99.90
19544;DHT22;9917;51.256;7.152;2023-04-29T02:47:04;11.60;99.90
19544;DHT22;9917;51.256;7.152;2023-04-29T02:54:22;11.70;99.90
19544;DHT22;9917;51.256;7.152;2023-04-29T03:01:41;11.80;99.90
19544;DHT22;9917;51.256;7.152;2023-04-29T03:04:07;11.40;99.90
19544;DHT22;9917;51.256;7.152;2023-04-29T03:06:32;12.00;99.90
19544;DHT22;9917;51.256;7.152;2023-04-29T03:11:24;11.30;99.90
19544;DHT22;9917;51.256;7.152;2023-04-29T03:13:50;11.30;99.90
19544;DHT22;9917;51.256;7.152;2023-04-29T03:16:16;11.40;99.90
19544;DHT22;9917;51.256;7.152;2023-04-29T03:18:43;11.50;99.90
19544;DHT22;9917;51.256;7.152;2023-04-29T03:21:09;11.70;99.90
19544;DHT22;9917;51.256;7.152;2023-04-29T03:23:34;11.50;99.90
19544;DHT22;9917;51.256;7.152;2023-04-29T03:35:45;11.30;99.90
19544;DHT22;9917;51.256;7.152;2023-04-29T03:40:37;11.90;99.90
19544;DHT22;9917;51.256;7.152;2023-04-29T03:43:03;11.50;99.90
19544;DHT22;9917;51.256;7.152;2023-04-29T03:47:54;11.70;99.90
19544;DHT22;9917;51.256;7.152;2023-04-29T03:50:21;11.40;99.90
19544;DHT22;9917;51.256;7.152;2023-04-29T03:52:48;11.60;99.90
19544;DHT22;9917;51.256;7.152;2023-04-29T04:00:07;12.00;99.90
19544;DHT22;9917;51.256;7.152;2023-04-29T04:02:33;11.70;99.90
19544;DHT22;9917;51.256;7.152;2023-04-29T04:04:59;11.50;99.90
19544;DHT22;9917;51.256;7.152;2023-04-29T04:07:24;11.50;99.90
19544;DHT22;9917;51.256;7.152;2023-04-29T04:09:51;11.90;99.90
19544;DHT22;9917;51.256;7.152;2023-04-29T04:14:44;11.50;99.90
19544;DHT22;9917;51.256;7.152;2023-04-29T04:22:02;11.60;99.90
19544;DHT22;9917;51.256;7.152;2023-04-29T04:24:28;11.70;99.90
19544;DHT22;9917;51.256;7.152;2023-04-29T04:26:55;11.40;99.90
19544;DHT22;9917;51.256;7.152;2023-04-29T04:29:21;11.60;99.90
19544;DHT22;9917;51.256;7.152;2023-04-29T04:31:46;11.70;99.90
19544;DHT22;9917;51.256;7.152;2023-04-29T04:34:12;11.00;99.90
19544;DHT22;9917;51.256;7.152;2023-04-29T04:39:04;11.30;99.90
19544;DHT22;9917;51.256;7.152;2023-04-29T04:43:57;11.80;99.90
19544;DHT22;9917;51.256;7.152;2023-04-29T04:46:23;11.20;99.90
19544;DHT22;9917;51.256;7.152;2023-04-29T04:48:48;11.30;99.90
19544;DHT22;9917;51.256;7.152;2023-04-29T04:51:14;11.30;99.90
19544;DHT22;9917;51.256;7.152;2023-04-29T04:56:06;11.40;99.90
19544;DHT22;9917;51.256;7.152;2023-04-29T05:01:00;11.30;99.90
19544;DHT22;9917;51.256;7.152;2023-04-29T05:03:25;11.40;99.90
19544;DHT22;9917;51.256;7.152;2023-04-29T05:05:54;11.50;99.90
19544;DHT22;9917;51.256;7.152;2023-04-29T05:10:46;11.50;99.90
19544;DHT22;9917;51.256;7.152;2023-04-29T05:13:12;11.40;99.90
19544;DHT22;9917;51.256;7.152;2023-04-29T05:18:05;11.30;99.90
19544;DHT22;9917;51.256;7.152;2023-04-29T05:20:31;11.50;99.90
19544;DHT22;9917;51.256;7.152;2023-04-29T05:25:41;11.80;99.90
19544;DHT22;9917;51.256;7.152;2023-04-29T05:28:07;11.90;99.90
19544;DHT22;9917;51.256;7.152;2023-04-29T05:30:33;11.60;99.90
19544;DHT22;9917;51.256;7.152;2023-04-29T05:32:58;11.50;99.90
19544;DHT22;9917;51.256;7.152;2023-04-29T05:35:26;11.90;99.90
19544;DHT22;9917;51.256;7.152;2023-04-29T05:37:51;11.60;99.90
19544;DHT22;9917;51.256;7.152;2023-04-29T05:42:43;12.10;99.90
19544;DHT22;9917;51.256;7.152;2023-04-29T05:45:09;11.70;99.90
19544;DHT22;9917;51.256;7.152;2023-04-29T05:47:35;11.70;99.90
19544;DHT22;9917;51.256;7.152;2023-04-29T05:50:01;12.20;99.90
19544;DHT22;9917;51.256;7.152;2023-04-29T05:52:28;11.80;99.90
19544;DHT22;9917;51.256;7.152;2023-04-29T05:54:53;11.80;99.90
19544;DHT22;9917;51.256;7.152;2023-04-29T05:59:45;11.90;99.90
19544;DHT22;9917;51.256;7.152;2023-04-29T06:02:11;12.00;99.90
19544;DHT22;9917;51.256;7.152;2023-04-29T06:04:47;12.00;99.90
19544;DHT22;9917;51.256;7.152;2023-04-29T06:07:13;12.10;99.90
19544;DHT22;9917;51.256;7.152;2023-04-29T06:09:40;12.10;99.90
19544;DHT22;9917;51.256;7.152;2023-04-29T06:12:06;12.00;99.90
19544;DHT22;9917;51.256;7.152;2023-04-29T06:14:32;12.30;99.90
19544;DHT22;9917;51.256;7.152;2023-04-29T06:16:57;11.80;99.90
19544;DHT22;9917;51.256;7.152;2023-04-29T06:19:23;12.20;99.90
19544;DHT22;9917;51.256;7.152;2023-04-29T06:21:49;12.50;99.90
19544;DHT22;9917;51.256;7.152;2023-04-29T06:24:14;12.60;99.90
19544;DHT22;9917;51.256;7.152;2023-04-29T06:26:41;12.70;99.90
19544;DHT22;9917;51.256;7.152;2023-04-29T06:29:07;12.60;99.90
19544;DHT22;9917;51.256;7.152;2023-04-29T06:31:33;12.80;99.90
19544;DHT22;9917;51.256;7.152;2023-04-29T06:33:59;13.00;99.90
19544;DHT22;9917;51.256;7.152;2023-04-29T06:36:24;12.80;99.90
19544;DHT22;9917;51.256;7.152;2023-04-29T06:43:43;13.00;99.90
19544;DHT22;9917;51.256;7.152;2023-04-29T06:46:09;14.10;99.90
19544;DHT22;9917;51.256;7.152;2023-04-29T06:48:35;13.40;99.90
19544;DHT22;9917;51.256;7.152;2023-04-29T06:51:01;13.40;99.90
19544;DHT22;9917;51.256;7.152;2023-04-29T06:53:27;13.50;99.90
19544;DHT22;9917;51.256;7.152;2023-04-29T06:55:52;13.30;99.90
19544;DHT22;9917;51.256;7.152;2023-04-29T06:58:18;13.70;99.90
19544;DHT22;9917;51.256;7.152;2023-04-29T07:00:46;13.40;99.90
19544;DHT22;9917;51.256;7.152;2023-04-29T07:05:38;12.80;99.90
19544;DHT22;9917;51.256;7.152;2023-04-29T07:10:30;13.30;99.90
19544;DHT22;9917;51.256;7.152;2023-04-29T07:12:56;13.60;99.90
19544;DHT22;9917;51.256;7.152;2023-04-29T07:15:22;13.20;99.90
19544;DHT22;9917;51.256;7.152;2023-04-29T07:17:49;13.10;99.90
19544;DHT22;9917;51.256;7.152;2023-04-29T07:20:15;13.10;99.90
19544;DHT22;9917;51.256;7.152;2023-04-29T07:25:07;12.90;99.90
19544;DHT22;9917;51.256;7.152;2023-04-29T07:27:33;12.90;99.90
19544;DHT22;9917;51.256;7.152;2023-04-29T07:30:00;13.20;99.90
19544;DHT22;9917;51.256;7.152;2023-04-29T07:34:53;13.20;99.90
19544;DHT22;9917;51.256;7.152;2023-04-29T07:37:19;12.90;99.90
19544;DHT22;9917;51.256;7.152;2023-04-29T07:39:45;12.90;99.90
19544;DHT22;9917;51.256;7.152;2023-04-29T07:42:11;12.90;99.90
19544;DHT22;9917;51.256;7.152;2023-04-29T07:44:36;13.00;99.90
19544;DHT22;9917;51.256;7.152;2023-04-29T07:51:55;13.00;99.90
19544;DHT22;9917;51.256;7.152;2023-04-29T07:54:21;12.60;99.90
19544;DHT22;9917;51.256;7.152;2023-04-29T07:56:47;13.10;99.90
19544;DHT22;9917;51.256;7.152;2023-04-29T07:59:13;13.20;99.90
19544;DHT22;9917;51.256;7.152;2023-04-29T08:01:39;13.00;99.90
19544;DHT22;9917;51.256;7.152;2023-04-29T08:04:05;12.90;99.90
19544;DHT22;9917;51.256;7.152;2023-04-29T08:06:31;13.40;99.90
19544;DHT22;9917;51.256;7.152;2023-04-29T08:08:59;13.00;99.90
19544;DHT22;9917;51.256;7.152;2023-04-29T08:11:25;12.90;99.90
19544;DHT22;9917;51.256;7.152;2023-04-29T08:13:51;12.70;99.90
19544;DHT22;9917;51.256;7.152;2023-04-29T08:18:45;12.90;99.90
19544;DHT22;9917;51.256;7.152;2023-04-29T08:21:12;13.00;99.90
19544;DHT22;9917;51.256;7.152;2023-04-29T08:23:38;12.90;99.90
19544;DHT22;9917;51.256;7.152;2023-04-29T08:26:05;12.80;99.90
19544;DHT22;9917;51.256;7.152;2023-04-29T08:28:31;12.70;99.90
19544;DHT22;9917;51.256;7.152;2023-04-29T08:33:23;12.70;99.90
19544;DHT22;9917;51.256;7.152;2023-04-29T08:35:56;12.90;99.90
19544;DHT22;9917;51.256;7.152;2023-04-29T08:38:22;12.60;99.90
19544;DHT22;9917;51.256;7.152;2023-04-29T08:43:15;13.00;99.90
19544;DHT22;9917;51.256;7.152;2023-04-29T08:45:41;12.90;99.90
19544;DHT22;9917;51.256;7.152;2023-04-29T08:48:07;13.00;99.90
19544;DHT22;9917;51.256;7.152;2023-04-29T08:50:37;13.00;99.90
19544;DHT22;9917;51.256;7.152;2023-04-29T08:53:25;13.70;99.90
19544;DHT22;9917;51.256;7.152;2023-04-29T08:55:51;12.80;99.90
19544;DHT22;9917;51.256;7.152;2023-04-29T08:58:22;13.20;99.90
19544;DHT22;9917;51.256;7.152;2023-04-29T09:00:49;12.90;99.90
19544;DHT22;9917;51.256;7.152;2023-04-29T09:03:20;13.10;99.90
19544;DHT22;9917;51.256;7.152;2023-04-29T09:05:48;12.90;99.90
19544;DHT22;9917;51.256;7.152;2023-04-29T09:08:14;12.80;99.90
19544;DHT22;9917;51.256;7.152;2023-04-29T09:10:41;13.00;99.90
19544;DHT22;9917;51.256;7.152;2023-04-29T09:13:07;12.80;99.90
19544;DHT22;9917;51.256;7.152;2023-04-29T09:15:36;12.70;99.90
19544;DHT22;9917;51.256;7.152;2023-04-29T09:18:02;12.80;99.90
19544;DHT22;9917;51.256;7.152;2023-04-29T09:20:29;12.60;99.90
19544;DHT22;9917;51.256;7.152;2023-04-29T09:22:58;12.70;99.90
19544;DHT22;9917;51.256;7.152;2023-04-29T09:25:24;12.80;99.90
19544;DHT22;9917;51.256;7.152;2023-04-29T09:27:50;12.70;99.90
19544;DHT22;9917;51.256;7.152;2023-04-29T09:32:43;12.70;99.90
19544;DHT22;9917;51.256;7.152;2023-04-29T09:35:22;12.60;99.90
19544;DHT22;9917;51.256;7.152;2023-04-29T09:40:26;12.70;99.90
19544;DHT22;9917;51.256;7.152;2023-04-29T09:42:52;12.60;99.90
19544;DHT22;9917;51.256;7.152;2023-04-29T09:45:32;12.70;99.90
19544;DHT22;9917;51.256;7.152;2023-04-29T09:48:02;12.70;99.90
19544;DHT22;9917;51.256;7.152;2023-04-29T09:50:28;12.70;99.90
19544;DHT22;9917;51.256;7.152;2023-04-29T09:55:21;12.40;99.90
19544;DHT22;9917;51.256;7.152;2023-04-29T09:58:04;12.80;99.90
19544;DHT22;9917;51.256;7.152;2023-04-29T10:00:31;12.70;99.90
19544;DHT22;9917;51.256;7.152;2023-04-29T10:02:58;12.70;99.90
19544;DHT22;9917;51.256;7.152;2023-04-29T10:05:28;12.70;99.90
19544;DHT22;9917;51.256;7.152;2023-04-29T10:07:54;12.70;99.90
19544;DHT22;9917;51.256;7.152;2023-04-29T10:10:21;12.80;99.90
19544;DHT22;9917;51.256;7.152;2023-04-29T10:12:48;12.70;99.90
19544;DHT22;9917;51.256;7.152;2023-04-29T10:15:22;12.90;99.90
19544;DHT22;9917;51.256;7.152;2023-04-29T10:17:54;12.90;99.90
19544;DHT22;9917;51.256;7.152;2023-04-29T10:20:24;13.10;99.90
19544;DHT22;9917;51.256;7.152;2023-04-29T10:22:53;13.00;99.90
19544;DHT22;9917;51.256;7.152;2023-04-29T10:25:20;13.00;99.90
19544;DHT22;9917;51.256;7.152;2023-04-29T10:27:47;13.10;99.90
19544;DHT22;9917;51.256;7.152;2023-04-29T10:30:14;13.10;99.90
19544;DHT22;9917;51.256;7.152;2023-04-29T10:32:40;13.20;99.90
19544;DHT22;9917;51.256;7.152;2023-04-29T10:35:08;13.00;99.90
19544;DHT22;9917;51.256;7.152;2023-04-29T10:40:11;13.20;99.90
19544;DHT22;9917;51.256;7.152;2023-04-29T10:42:42;13.30;99.90
19544;DHT22;9917;51.256;7.152;2023-04-29T10:45:19;13.30;99.90
19544;DHT22;9917;51.256;7.152;2023-04-29T10:48:09;13.10;99.90
19544;DHT22;9917;51.256;7.152;2023-04-29T10:53:20;13.20;99.90
19544;DHT22;9917;51.256;7.152;2023-04-29T10:55:52;13.60;99.90
19544;DHT22;9917;51.256;7.152;2023-04-29T10:58:34;13.00;99.90
19544;DHT22;9917;51.256;7.152;2023-04-29T11:01:00;13.50;99.90
19544;DHT22;9917;51.256;7.152;2023-04-29T11:03:47;13.40;99.90
19544;DHT22;9917;51.256;7.152;2023-04-29T11:06:13;13.50;99.90
19544;DHT22;9917;51.256;7.152;2023-04-29T11:08:39;13.50;99.90
19544;DHT22;9917;51.256;7.152;2023-04-29T11:11:07;13.40;99.90
19544;DHT22;9917;51.256;7.152;2023-04-29T11:13:38;13.40;99.90
19544;DHT22;9917;51.256;7.152;2023-04-29T11:16:04;13.60;99.90
19544;DHT22;9917;51.256;7.152;2023-04-29T11:18:30;13.60;99.90
19544;DHT22;9917;51.256;7.152;2023-04-29T11:21:11;14.00;99.90
19544;DHT22;9917;51.256;7.152;2023-04-29T11:23:38;14.50;99.90
19544;DHT22;9917;51.256;7.152;2023-04-29T11:26:04;15.10;99.90
19544;DHT22;9917;51.256;7.152;2023-04-29T11:28:32;15.90;99.90
19544;DHT22;9917;51.256;7.152;2023-04-29T11:30:58;16.70;99.90
19544;DHT22;9917;51.256;7.152;2023-04-29T11:33:25;16.90;99.90
19544;DHT22;9917;51.256;7.152;2023-04-29T11:35:52;17.80;99.90
19544;DHT22;9917;51.256;7.152;2023-04-29T11:38:23;17.90;99.90
19544;DHT22;9917;51.256;7.152;2023-04-29T11:40:50;17.90;99.90
19544;DHT22;9917;51.256;7.152;2023-04-29T11:43:16;18.90;99.90
19544;DHT22;9917;51.256;7.152;2023-04-29T11:45:44;17.80;99.90
19544;DHT22;9917;51.256;7.152;2023-04-29T11:48:16;16.50;99.90
19544;DHT22;9917;51.256;7.152;2023-04-29T11:50:42;18.10;99.90
19544;DHT22;9917;51.256;7.152;2023-04-29T11:53:08;18.10;99.90
19544;DHT22;9917;51.256;7.152;2023-04-29T11:58:00;17.80;99.90
19544;DHT22;9917;51.256;7.152;2023-04-29T12:00:30;17.60;99.90
19544;DHT22;9917;51.256;7.152;2023-04-29T12:03:00;17.80;99.90
19544;DHT22;9917;51.256;7.152;2023-04-29T12:05:26;18.00;99.90
19544;DHT22;9917;51.256;7.152;2023-04-29T12:10:18;18.10;99.90
19544;DHT22;9917;51.256;7.152;2023-04-29T12:12:44;18.90;99.90
19544;DHT22;9917;51.256;7.152;2023-04-29T12:15:10;18.90;99.90
19544;DHT22;9917;51.256;7.152;2023-04-29T12:17:36;19.30;99.90
19544;DHT22;9917;51.256;7.152;2023-04-29T12:20:05;19.60;99.90
19544;DHT22;9917;51.256;7.152;2023-04-29T12:22:31;19.70;99.90
19544;DHT22;9917;51.256;7.152;2023-04-29T12:25:01;20.20;99.20
19544;DHT22;9917;51.256;7.152;2023-04-29T12:27:28;20.10;99.40
19544;DHT22;9917;51.256;7.152;2023-04-29T12:29:55;20.20;98.50
19544;DHT22;9917;51.256;7.152;2023-04-29T12:32:22;20.30;98.30
19544;DHT22;9917;51.256;7.152;2023-04-29T12:34:50;20.40;97.30
19544;DHT22;9917;51.256;7.152;2023-04-29T12:37:17;20.20;97.40
19544;DHT22;9917;51.256;7.152;2023-04-29T12:39:43;20.00;97.00
19544;DHT22;9917;51.256;7.152;2023-04-29T12:42:14;19.80;98.00
19544;DHT22;9917;51.256;7.152;2023-04-29T12:44:44;19.60;98.30
19544;DHT22;9917;51.256;7.152;2023-04-29T12:47:10;19.50;98.20
19544;DHT22;9917;51.256;7.152;2023-04-29T12:49:35;19.20;98.70
19544;DHT22;9917;51.256;7.152;2023-04-29T12:52:01;19.00;98.90
19544;DHT22;9917;51.256;7.152;2023-04-29T12:54:28;18.70;99.00
19544;DHT22;9917;51.256;7.152;2023-04-29T12:56:54;18.50;99.00
19544;DHT22;9917;51.256;7.152;2023-04-29T12:59:20;18.50;99.20
19544;DHT22;9917;51.256;7.152;2023-04-29T13:01:46;18.30;99.60
19544;DHT22;9917;51.256;7.152;2023-04-29T13:04:21;17.70;99.90
19544;DHT22;9917;51.256;7.152;2023-04-29T13:06:46;17.70;99.90
19544;DHT22;9917;51.256;7.152;2023-04-29T13:09:22;17.70;99.90
19544;DHT22;9917;51.256;7.152;2023-04-29T13:11:49;17.60;99.90
19544;DHT22;9917;51.256;7.152;2023-04-29T13:14:14;17.60;99.90
19544;DHT22;9917;51.256;7.152;2023-04-29T13:16:40;17.60;99.90
19544;DHT22;9917;51.256;7.152;2023-04-29T13:19:06;17.80;99.90
19544;DHT22;9917;51.256;7.152;2023-04-29T13:21:33;17.80;99.90
19544;DHT22;9917;51.256;7.152;2023-04-29T13:23:59;17.90;99.90
19544;DHT22;9917;51.256;7.152;2023-04-29T13:28:52;18.10;99.90
19544;DHT22;9917;51.256;7.152;2023-04-29T13:31:18;17.80;99.90
19544;DHT22;9917;51.256;7.152;2023-04-29T13:33:43;18.00;99.90
19544;DHT22;9917;51.256;7.152;2023-04-29T13:36:09;17.80;99.90
19544;DHT22;9917;51.256;7.152;2023-04-29T13:38:35;19.00;99.90
19544;DHT22;9917;51.256;7.152;2023-04-29T13:41:01;17.50;99.90
19544;DHT22;9917;51.256;7.152;2023-04-29T13:43:27;17.60;99.90
19544;DHT22;9917;51.256;7.152;2023-04-29T13:45:54;18.10;99.90
19544;DHT22;9917;51.256;7.152;2023-04-29T13:48:20;17.70;99.90
19544;DHT22;9917;51.256;7.152;2023-04-29T13:50:45;17.60;99.90
19544;DHT22;9917;51.256;7.152;2023-04-29T13:53:14;17.60;99.90
19544;DHT22;9917;51.256;7.152;2023-04-29T13:55:40;17.70;99.90
19544;DHT22;9917;51.256;7.152;2023-04-29T13:58:05;17.80;99.90
19544;DHT22;9917;51.256;7.152;2023-04-29T14:00:51;17.70;99.60
19544;DHT22;9917;51.256;7.152;2023-04-29T14:03:18;17.60;99.90
19544;DHT22;9917;51.256;7.152;2023-04-29T14:05:50;17.60;99.90
19544;DHT22;9917;51.256;7.152;2023-04-29T14:08:18;17.60;99.90
19544;DHT22;9917;51.256;7.152;2023-04-29T14:10:45;17.50;99.90
19544;DHT22;9917;51.256;7.152;2023-04-29T14:13:11;17.50;99.90
19544;DHT22;9917;51.256;7.152;2023-04-29T14:15:37;17.70;99.90
19544;DHT22;9917;51.256;7.152;2023-04-29T14:18:02;17.40;99.90
19544;DHT22;9917;51.256;7.152;2023-04-29T14:20:30;17.60;99.90
19544;DHT22;9917;51.256;7.152;2023-04-29T14:22:55;17.60;99.90
19544;DHT22;9917;51.256;7.152;2023-04-29T14:25:21;17.80;99.80
19544;DHT22;9917;51.256;7.152;2023-04-29T14:27:47;18.00;99.60
19544;DHT22;9917;51.256;7.152;2023-04-29T14:30:13;18.10;99.40
19544;DHT22;9917;51.256;7.152;2023-04-29T14:32:38;18.20;99.60
19544;DHT22;9917;51.256;7.152;2023-04-29T14:35:05;18.10;99.80
19544;DHT22;9917;51.256;7.152;2023-04-29T14:37:34;18.00;99.60
19544;DHT22;9917;51.256;7.152;2023-04-29T14:39:59;18.00;97.80
19544;DHT22;9917;51.256;7.152;2023-04-29T14:42:25;18.00;98.00
19544;DHT22;9917;51.256;7.152;2023-04-29T14:44:53;18.00;98.50
19544;DHT22;9917;51.256;7.152;2023-04-29T14:47:19;18.00;98.20
19544;DHT22;9917;51.256;7.152;2023-04-29T14:49:46;17.70;98.30
19544;DHT22;9917;51.256;7.152;2023-04-29T14:52:12;17.60;98.40
19544;DHT22;9917;51.256;7.152;2023-04-29T14:54:39;17.30;98.80
19544;DHT22;9917;51.256;7.152;2023-04-29T14:57:05;17.10;99.20
19544;DHT22;9917;51.256;7.152;2023-04-29T14:59:31;16.80;99.60
19544;DHT22;9917;51.256;7.152;2023-04-29T15:01:59;16.50;99.90
19544;DHT22;9917;51.256;7.152;2023-04-29T15:04:24;16.10;99.90
19544;DHT22;9917;51.256;7.152;2023-04-29T15:06:50;16.00;99.90
19544;DHT22;9917;51.256;7.152;2023-04-29T15:09:16;16.30;99.90
19544;DHT22;9917;51.256;7.152;2023-04-29T15:11:51;15.90;99.90
19544;DHT22;9917;51.256;7.152;2023-04-29T15:14:23;16.10;99.90
19544;DHT22;9917;51.256;7.152;2023-04-29T15:16:49;16.20;99.90
19544;DHT22;9917;51.256;7.152;2023-04-29T15:19:15;16.00;99.90
19544;DHT22;9917;51.256;7.152;2023-04-29T15:21:41;16.00;99.90
19544;DHT22;9917;51.256;7.152;2023-04-29T15:24:07;16.10;99.90
19544;DHT22;9917;51.256;7.152;2023-04-29T15:26:32;16.30;99.90
19544;DHT22;9917;51.256;7.152;2023-04-29T15:29:04;16.40;99.90
19544;DHT22;9917;51.256;7.152;2023-04-29T15:31:30;16.50;99.90
19544;DHT22;9917;51.256;7.152;2023-04-29T15:33:56;16.70;99.90
19544;DHT22;9917;51.256;7.152;2023-04-29T15:36:26;17.30;99.90
19544;DHT22;9917;51.256;7.152;2023-04-29T15:38:52;17.20;99.60
19544;DHT22;9917;51.256;7.152;2023-04-29T15:41:21;17.20;99.70
19544;DHT22;9917;51.256;7.152;2023-04-29T15:43:47;17.30;99.50
19544;DHT22;9917;51.256;7.152;2023-04-29T15:46:14;17.20;99.10
19544;DHT22;9917;51.256;7.152;2023-04-29T15:48:43;17.40;99.40
19544;DHT22;9917;51.256;7.152;2023-04-29T15:51:09;17.30;99.30
19544;DHT22;9917;51.256;7.152;2023-04-29T15:53:35;17.20;99.10
19544;DHT22;9917;51.256;7.152;2023-04-29T15:56:00;17.20;99.30
19544;DHT22;9917;51.256;7.152;2023-04-29T15:58:26;17.30;99.30
19544;DHT22;9917;51.256;7.152;2023-04-29T16:00:52;17.80;98.50
19544;DHT22;9917;51.256;7.152;2023-04-29T16:03:19;17.90;98.70
19544;DHT22;9917;51.256;7.152;2023-04-29T16:05:45;18.40;97.30
19544;DHT22;9917;51.256;7.152;2023-04-29T16:08:17;18.70;96.00
19544;DHT22;9917;51.256;7.152;2023-04-29T16:10:43;19.00;94.90
19544;DHT22;9917;51.256;7.152;2023-04-29T16:13:09;19.20;94.00
19544;DHT22;9917;51.256;7.152;2023-04-29T16:15:35;19.20;94.00
19544;DHT22;9917;51.256;7.152;2023-04-29T16:18:00;19.20;94.60
19544;DHT22;9917;51.256;7.152;2023-04-29T16:20:27;19.50;93.60
19544;DHT22;9917;51.256;7.152;2023-04-29T16:22:54;19.20;93.70
19544;DHT22;9917;51.256;7.152;2023-04-29T16:25:23;19.00;93.90
19544;DHT22;9917;51.256;7.152;2023-04-29T16:27:58;18.50;94.20
19544;DHT22;9917;51.256;7.152;2023-04-29T16:30:24;18.50;94.60
19544;DHT22;9917;51.256;7.152;2023-04-29T16:32:50;18.00;94.50
19544;DHT22;9917;51.256;7.152;2023-04-29T16:35:16;18.10;94.80
19544;DHT22;9917;51.256;7.152;2023-04-29T16:37:43;17.80;95.70
19544;DHT22;9917;51.256;7.152;2023-04-29T16:40:09;17.70;95.90
19544;DHT22;9917;51.256;7.152;2023-04-29T16:42:35;17.60;96.00
19544;DHT22;9917;51.256;7.152;2023-04-29T16:45:01;17.40;96.40
19544;DHT22;9917;51.256;7.152;2023-04-29T16:47:27;17.10;96.80
19544;DHT22;9917;51.256;7.152;2023-04-29T16:49:53;17.00;97.00
19544;DHT22;9917;51.256;7.152;2023-04-29T16:52:18;16.90;96.80
19544;DHT22;9917;51.256;7.152;2023-04-29T16:58:08;16.60;97.60
19544;DHT22;9917;51.256;7.152;2023-04-29T17:00:33;16.50;97.90
19544;DHT22;9917;51.256;7.152;2023-04-29T17:02:59;16.50;98.10
19544;DHT22;9917;51.256;7.152;2023-04-29T17:05:25;16.50;98.40
19544;DHT22;9917;51.256;7.152;2023-04-29T17:07:51;16.40;98.40
19544;DHT22;9917;51.256;7.152;2023-04-29T17:10:17;16.30;98.60
19544;DHT22;9917;51.256;7.152;2023-04-29T17:12:43;16.30;98.80
19544;DHT22;9917;51.256;7.152;2023-04-29T17:15:13;16.20;98.40
19544;DHT22;9917;51.256;7.152;2023-04-29T17:17:39;16.10;98.60
19544;DHT22;9917;51.256;7.152;2023-04-29T17:20:06;16.10;99.00
19544;DHT22;9917;51.256;7.152;2023-04-29T17:22:32;16.00;99.10
19544;DHT22;9917;51.256;7.152;2023-04-29T17:24:58;15.90;99.10
19544;DHT22;9917;51.256;7.152;2023-04-29T17:27:24;15.70;99.60
19544;DHT22;9917;51.256;7.152;2023-04-29T17:29:50;15.60;99.70
19544;DHT22;9917;51.256;7.152;2023-04-29T17:32:38;15.50;99.90
19544;DHT22;9917;51.256;7.152;2023-04-29T17:35:06;15.40;99.90
19544;DHT22;9917;51.256;7.152;2023-04-29T17:37:32;15.30;99.90
19544;DHT22;9917;51.256;7.152;2023-04-29T17:39:58;15.40;99.90
19544;DHT22;9917;51.256;7.152;2023-04-29T17:42:23;15.30;99.90
19544;DHT22;9917;51.256;7.152;2023-04-29T17:44:49;15.60;99.90
19544;DHT22;9917;51.256;7.152;2023-04-29T17:47:15;15.20;99.90
19544;DHT22;9917;51.256;7.152;2023-04-29T17:49:42;15.10;99.90
19544;DHT22;9917;51.256;7.152;2023-04-29T17:52:08;15.20;99.90
19544;DHT22;9917;51.256;7.152;2023-04-29T17:54:35;15.20;99.90
19544;DHT22;9917;51.256;7.152;2023-04-29T17:57:02;15.30;99.90
19544;DHT22;9917;51.256;7.152;2023-04-29T17:59:32;15.00;99.90
19544;DHT22;9917;51.256;7.152;2023-04-29T18:01:58;15.00;99.90
19544;DHT22;9917;51.256;7.152;2023-04-29T18:04:23;14.90;99.90
19544;DHT22;9917;51.256;7.152;2023-04-29T18:06:57;14.90;99.90
19544;DHT22;9917;51.256;7.152;2023-04-29T18:09:22;14.70;99.90
19544;DHT22;9917;51.256;7.152;2023-04-29T18:11:48;14.70;99.90
19544;DHT22;9917;51.256;7.152;2023-04-29T18:14:14;14.60;99.90
19544;DHT22;9917;51.256;7.152;2023-04-29T18:16:46;14.30;99.90
19544;DHT22;9917;51.256;7.152;2023-04-29T18:19:11;14.00;99.90
19544;DHT22;9917;51.256;7.152;2023-04-29T18:24:05;14.40;99.90
19544;DHT22;9917;51.256;7.152;2023-04-29T18:26:31;14.40;99.90
19544;DHT22;9917;51.256;7.152;2023-04-29T18:28:56;14.30;99.90
19544;DHT22;9917;51.256;7.152;2023-04-29T18:31:22;14.20;99.90
19544;DHT22;9917;51.256;7.152;2023-04-29T18:33:48;14.40;99.90